Iowa City, IA

8:14 AM CST en Febrero 21, 2017 (GMT -0600)
NE Iowa City | | Change Station

Alt 755 ft 41.71 °N, 91.48 °W | Updated 22 seconds ago

Parcialmente nublado
Parcialmente nublado
40.7 ° F
Sensación térmica 41 ° F
N
0.0
Viento Variable Viento desde Sur

Hoy
Alta -- | Baja -- ° F
--% Posibilidad de precipitaciones
Ayer
Alta -- | Baja -- ° F
Precip. -- pul
Presión 29.98 pul
Visibilidad 3.0 Millas
Nubes Despejado
Vientos helados 41 ° F
Punto de rocío 40 ° F
Humedad 98%
Precipitaciones 0.00 pul
Espesor de la nieve No disponible.
6:52 AM 5:47 PM
Creciente menguante, 25% visible
METAR KIOW 211352Z AUTO 00000KT 3SM BR CLR 05/04 A2998 RMK AO2 SLP152 T00500039
Presión 29.98 pul
Visibilidad 3.0 Millas
Nubes Despejado
Vientos helados 41 ° F
Punto de rocío 40 ° F
Humedad 98%
Precipitaciones 0.00 pul
Espesor de la nieve No disponible.
6:52 AM 5:47 PM
Creciente menguante, 25% visible
METAR KIOW 211352Z AUTO 00000KT 3SM BR CLR 05/04 A2998 RMK AO2 SLP152 T00500039

Get Your Daily Forecast Email!

Thanks for signing up!

Be on the lookout for a verification email in your inbox.

You'll start receiving the daily forecast at 8 AM.

×

10-Day Weather Forecast

Almanac

Astronomía

Feb. 21, 2017 Salida Puesta
Hora real
Crepúsculo civil
Crepúsculo náutico
Crepúsculo astronómico
Luna
Horas de luz
Horas de luz
Tomorrow will be .
, % of the Moon is Illuminated

Extremos de hoy

Máximos del estado Bajos del estado

Community

WunderPhotos

Upload Photos

1,962,540 ¡fotos cargadas!

WunderBlog® & News

Nearby

Calidad del aire

  Calidad del aire Índice AQ Contaminante
Not available.

Grosos de nieve

Estación Profundido Altura

Actividad de terremotos

Ciudad Distance Mag. Tiempo y dato
Magnitud mínima muestra es 2,5.

Temperaturas de aguas costeras

Lugar Temperatura

Stations

Estaciones meteorológicas cercanas

Ubicación de la estación Temp. Vientos helados Punto de rocío Humedad Viento Precip. Alt Actualizado Tipo
                   

Watches & Warnings

There are currently no watches in effect.